sensor_id;sensor_type;location;lat;lon;timestamp;pressure;altitude;pressure_sealevel;temperature;humidity
22605;BME280;11469;49.024;8.246;2024-01-07T00:01:59;99944.06;;;4.32;100.00
22605;BME280;11469;49.024;8.246;2024-01-07T00:04:24;99956.00;;;4.33;100.00
22605;BME280;11469;49.024;8.246;2024-01-07T00:06:49;99951.25;;;4.33;100.00
22605;BME280;11469;49.024;8.246;2024-01-07T00:09:16;99955.84;;;4.29;100.00
22605;BME280;11469;49.024;8.246;2024-01-07T00:11:41;99954.88;;;4.25;100.00
22605;BME280;11469;49.024;8.246;2024-01-07T00:14:07;99952.56;;;4.27;100.00
22605;BME280;11469;49.024;8.246;2024-01-07T00:16:32;99952.78;;;4.22;100.00
22605;BME280;11469;49.024;8.246;2024-01-07T00:18:57;99957.03;;;4.20;100.00
22605;BME280;11469;49.024;8.246;2024-01-07T00:21:23;99950.66;;;4.19;100.00
22605;BME280;11469;49.024;8.246;2024-01-07T00:23:49;99961.91;;;4.23;100.00
22605;BME280;11469;49.024;8.246;2024-01-07T00:26:14;99964.69;;;4.23;100.00
22605;BME280;11469;49.024;8.246;2024-01-07T00:28:40;99955.69;;;4.26;100.00
22605;BME280;11469;49.024;8.246;2024-01-07T00:31:05;99963.38;;;4.20;100.00
22605;BME280;11469;49.024;8.246;2024-01-07T00:33:34;99972.00;;;4.27;100.00
22605;BME280;11469;49.024;8.246;2024-01-07T00:35:59;99967.25;;;4.28;100.00
22605;BME280;11469;49.024;8.246;2024-01-07T00:38:25;99964.38;;;4.24;100.00
22605;BME280;11469;49.024;8.246;2024-01-07T00:40:50;99968.06;;;4.28;100.00
22605;BME280;11469;49.024;8.246;2024-01-07T00:43:16;99965.97;;;4.25;100.00
22605;BME280;11469;49.024;8.246;2024-01-07T00:45:41;99966.00;;;4.17;100.00
22605;BME280;11469;49.024;8.246;2024-01-07T00:48:07;99971.72;;;4.12;100.00
22605;BME280;11469;49.024;8.246;2024-01-07T00:50:32;99975.31;;;4.12;100.00
22605;BME280;11469;49.024;8.246;2024-01-07T00:52:57;99968.94;;;4.12;100.00
22605;BME280;11469;49.024;8.246;2024-01-07T00:55:23;99971.06;;;4.15;100.00
22605;BME280;11469;49.024;8.246;2024-01-07T00:57:49;99972.06;;;4.10;100.00
22605;BME280;11469;49.024;8.246;2024-01-07T01:00:15;99974.34;;;4.08;100.00
22605;BME280;11469;49.024;8.246;2024-01-07T01:02:40;99973.69;;;4.03;100.00
22605;BME280;11469;49.024;8.246;2024-01-07T01:05:06;99975.81;;;4.06;100.00
22605;BME280;11469;49.024;8.246;2024-01-07T01:07:31;99977.94;;;4.09;100.00
22605;BME280;11469;49.024;8.246;2024-01-07T01:09:58;99977.44;;;4.15;100.00
22605;BME280;11469;49.024;8.246;2024-01-07T01:12:23;99981.50;;;4.09;100.00
22605;BME280;11469;49.024;8.246;2024-01-07T01:14:49;99979.38;;;4.15;100.00
22605;BME280;11469;49.024;8.246;2024-01-07T01:17:14;99982.34;;;4.10;100.00
22605;BME280;11469;49.024;8.246;2024-01-07T01:19:40;99985.09;;;4.10;100.00
22605;BME280;11469;49.024;8.246;2024-01-07T01:22:05;99976.78;;;4.18;100.00
22605;BME280;11469;49.024;8.246;2024-01-07T01:24:30;99985.09;;;4.10;100.00
22605;BME280;11469;49.024;8.246;2024-01-07T01:26:56;99983.63;;;4.21;100.00
22605;BME280;11469;49.024;8.246;2024-01-07T01:29:21;99980.69;;;4.17;100.00
22605;BME280;11469;49.024;8.246;2024-01-07T01:31:46;99982.31;;;4.18;100.00
22605;BME280;11469;49.024;8.246;2024-01-07T01:34:12;99988.69;;;4.19;100.00
22605;BME280;11469;49.024;8.246;2024-01-07T01:36:37;99991.78;;;4.17;100.00
22605;BME280;11469;49.024;8.246;2024-01-07T01:39:03;99983.13;;;4.19;100.00
22605;BME280;11469;49.024;8.246;2024-01-07T01:41:28;99987.72;;;4.15;100.00
22605;BME280;11469;49.024;8.246;2024-01-07T01:43:58;99989.50;;;4.11;100.00
22605;BME280;11469;49.024;8.246;2024-01-07T01:46:24;99993.25;;;4.15;100.00
22605;BME280;11469;49.024;8.246;2024-01-07T01:48:49;99988.03;;;4.22;100.00
22605;BME280;11469;49.024;8.246;2024-01-07T01:51:15;99993.41;;;4.18;100.00
22605;BME280;11469;49.024;8.246;2024-01-07T01:53:41;99988.03;;;4.22;100.00
22605;BME280;11469;49.024;8.246;2024-01-07T01:56:07;99991.28;;;4.24;100.00
22605;BME280;11469;49.024;8.246;2024-01-07T01:58:32;99989.50;;;4.19;100.00
22605;BME280;11469;49.024;8.246;2024-01-07T02:00:58;99991.47;;;4.10;100.00
22605;BME280;11469;49.024;8.246;2024-01-07T02:03:24;99985.91;;;4.19;100.00
22605;BME280;11469;49.024;8.246;2024-01-07T02:05:51;99984.75;;;4.20;100.00
22605;BME280;11469;49.024;8.246;2024-01-07T02:08:18;99991.78;;;4.17;100.00
22605;BME280;11469;49.024;8.246;2024-01-07T02:10:44;99986.25;;;4.17;100.00
22605;BME280;11469;49.024;8.246;2024-01-07T02:13:10;99993.75;;;4.17;100.00
22605;BME280;11469;49.024;8.246;2024-01-07T02:15:35;99997.66;;;4.16;100.00
22605;BME280;11469;49.024;8.246;2024-01-07T02:18:01;99998.47;;;4.16;100.00
22605;BME280;11469;49.024;8.246;2024-01-07T02:20:27;99991.28;;;4.15;100.00
22605;BME280;11469;49.024;8.246;2024-01-07T02:22:52;100001.91;;;4.13;100.00
22605;BME280;11469;49.024;8.246;2024-01-07T02:25:17;100000.75;;;4.14;100.00
22605;BME280;11469;49.024;8.246;2024-01-07T02:27:43;100007.28;;;4.18;100.00
22605;BME280;11469;49.024;8.246;2024-01-07T02:30:08;100005.34;;;4.10;100.00
22605;BME280;11469;49.024;8.246;2024-01-07T02:32:34;100006.63;;;4.13;100.00
22605;BME280;11469;49.024;8.246;2024-01-07T02:35:01;100004.53;;;4.10;100.00
22605;BME280;11469;49.024;8.246;2024-01-07T02:37:27;100000.13;;;4.09;100.00
22605;BME280;11469;49.024;8.246;2024-01-07T02:39:52;100000.13;;;4.09;100.00
22605;BME280;11469;49.024;8.246;2024-01-07T02:42:17;100001.75;;;4.10;100.00
22605;BME280;11469;49.024;8.246;2024-01-07T02:44:43;99995.22;;;4.14;100.00
22605;BME280;11469;49.024;8.246;2024-01-07T02:47:08;100001.75;;;4.10;100.00
22605;BME280;11469;49.024;8.246;2024-01-07T02:49:34;100001.25;;;4.08;100.00
22605;BME280;11469;49.024;8.246;2024-01-07T02:51:59;100003.06;;;4.12;100.00
22605;BME280;11469;49.024;8.246;2024-01-07T02:54:25;100000.28;;;4.04;100.00
22605;BME280;11469;49.024;8.246;2024-01-07T02:56:50;99991.47;;;4.02;100.00
22605;BME280;11469;49.024;8.246;2024-01-07T02:59:15;99995.72;;;4.08;100.00
22605;BME280;11469;49.024;8.246;2024-01-07T03:01:41;99999.13;;;4.05;100.00
22605;BME280;11469;49.024;8.246;2024-01-07T03:04:12;100009.75;;;4.03;100.00
22605;BME280;11469;49.024;8.246;2024-01-07T03:06:38;100011.88;;;4.06;100.00
22605;BME280;11469;49.024;8.246;2024-01-07T03:09:03;100009.59;;;3.99;100.00
22605;BME280;11469;49.024;8.246;2024-01-07T03:11:29;100007.63;;;3.99;100.00
22605;BME280;11469;49.024;8.246;2024-01-07T03:13:57;100012.19;;;4.04;100.00
22605;BME280;11469;49.024;8.246;2024-01-07T03:16:24;100007.63;;;3.99;100.00
22605;BME280;11469;49.024;8.246;2024-01-07T03:18:50;100009.59;;;3.99;100.00
22605;BME280;11469;49.024;8.246;2024-01-07T03:21:23;100010.88;;;4.02;100.00
22605;BME280;11469;49.024;8.246;2024-01-07T03:23:49;100012.50;;;4.03;100.00
22605;BME280;11469;49.024;8.246;2024-01-07T03:26:17;100012.34;;;3.99;100.00
22605;BME280;11469;49.024;8.246;2024-01-07T03:28:43;100006.97;;;4.03;100.00
22605;BME280;11469;49.024;8.246;2024-01-07T03:31:12;100010.88;;;4.02;100.00
22605;BME280;11469;49.024;8.246;2024-01-07T03:33:38;100015.63;;;4.01;100.00
22605;BME280;11469;49.024;8.246;2024-01-07T03:36:13;100013.00;;;4.05;100.00
22605;BME280;11469;49.024;8.246;2024-01-07T03:38:40;100010.56;;;4.03;100.00
22605;BME280;11469;49.024;8.246;2024-01-07T03:41:06;100014.16;;;4.04;100.00
22605;BME280;11469;49.024;8.246;2024-01-07T03:43:31;100012.34;;;3.99;100.00
22605;BME280;11469;49.024;8.246;2024-01-07T03:45:57;100022.13;;;4.05;100.00
22605;BME280;11469;49.024;8.246;2024-01-07T03:48:23;100013.50;;;3.98;100.00
22605;BME280;11469;49.024;8.246;2024-01-07T03:50:48;100022.78;;;4.02;100.00
22605;BME280;11469;49.024;8.246;2024-01-07T03:53:15;100018.56;;;4.05;100.00
22605;BME280;11469;49.024;8.246;2024-01-07T03:55:41;100022.47;;;3.95;100.00
22605;BME280;11469;49.024;8.246;2024-01-07T03:58:06;100019.53;;;4.00;100.00
22605;BME280;11469;49.024;8.246;2024-01-07T04:00:33;100025.41;;;4.07;100.00
22605;BME280;11469;49.024;8.246;2024-01-07T04:02:58;100023.44;;;4.08;100.00
22605;BME280;11469;49.024;8.246;2024-01-07T04:05:24;100021.00;;;3.97;100.00
22605;BME280;11469;49.024;8.246;2024-01-07T04:07:49;100029.00;;;3.99;100.00
22605;BME280;11469;49.024;8.246;2024-01-07T04:10:18;100031.44;;;4.09;100.00
22605;BME280;11469;49.024;8.246;2024-01-07T04:12:44;100038.13;;;4.08;100.00
22605;BME280;11469;49.024;8.246;2024-01-07T04:15:10;100031.75;;;3.99;100.00
22605;BME280;11469;49.024;8.246;2024-01-07T04:17:36;100038.13;;;3.99;100.00
22605;BME280;11469;49.024;8.246;2024-01-07T04:20:01;100044.31;;;4.05;100.00
22605;BME280;11469;49.024;8.246;2024-01-07T04:22:26;100042.69;;;4.04;100.00
22605;BME280;11469;49.024;8.246;2024-01-07T04:24:52;100045.63;;;4.08;100.00
22605;BME280;11469;49.024;8.246;2024-01-07T04:27:17;100044.00;;;3.98;100.00
22605;BME280;11469;49.024;8.246;2024-01-07T04:29:43;100046.59;;;3.94;100.00
22605;BME280;11469;49.024;8.246;2024-01-07T04:32:08;100052.63;;;3.96;100.00
22605;BME280;11469;49.024;8.246;2024-01-07T04:34:33;100045.78;;;3.94;100.00
22605;BME280;11469;49.024;8.246;2024-01-07T04:36:59;100056.72;;;3.90;100.00
22605;BME280;11469;49.024;8.246;2024-01-07T04:39:24;100055.72;;;3.86;100.00
22605;BME280;11469;49.024;8.246;2024-01-07T04:41:49;100062.91;;;3.87;100.00
22605;BME280;11469;49.024;8.246;2024-01-07T04:44:15;100061.78;;;3.88;100.00
22605;BME280;11469;49.024;8.246;2024-01-07T04:46:40;100062.56;;;3.80;100.00
22605;BME280;11469;49.024;8.246;2024-01-07T04:49:06;100061.44;;;3.81;100.00
22605;BME280;11469;49.024;8.246;2024-01-07T04:51:32;100056.38;;;3.83;100.00
22605;BME280;11469;49.024;8.246;2024-01-07T04:53:58;100066.47;;;3.79;100.00
22605;BME280;11469;49.024;8.246;2024-01-07T04:56:23;100063.72;;;3.79;100.00
22605;BME280;11469;49.024;8.246;2024-01-07T04:58:48;100068.28;;;3.84;100.00
22605;BME280;11469;49.024;8.246;2024-01-07T05:01:14;100072.84;;;3.80;100.00
22605;BME280;11469;49.024;8.246;2024-01-07T05:03:39;100075.63;;;3.80;100.00
22605;BME280;11469;49.024;8.246;2024-01-07T05:06:05;100078.56;;;3.83;100.00
22605;BME280;11469;49.024;8.246;2024-01-07T05:08:30;100077.91;;;3.86;100.00
22605;BME280;11469;49.024;8.246;2024-01-07T05:10:56;100080.84;;;3.90;100.00
22605;BME280;11469;49.024;8.246;2024-01-07T05:13:22;100084.44;;;3.82;100.00
22605;BME280;11469;49.024;8.246;2024-01-07T05:15:47;100084.09;;;3.83;100.00
22605;BME280;11469;49.024;8.246;2024-01-07T05:18:23;100078.06;;;3.81;100.00
22605;BME280;11469;49.024;8.246;2024-01-07T05:20:49;100081.16;;;3.80;100.00
22605;BME280;11469;49.024;8.246;2024-01-07T05:23:15;100087.53;;;3.80;100.00
22605;BME280;11469;49.024;8.246;2024-01-07T05:25:43;100089.81;;;3.78;100.00
22605;BME280;11469;49.024;8.246;2024-01-07T05:28:09;100091.13;;;3.81;100.00
22605;BME280;11469;49.024;8.246;2024-01-07T05:30:34;100094.69;;;3.81;100.00
22605;BME280;11469;49.024;8.246;2024-01-07T05:33:00;100090.63;;;3.79;100.00
22605;BME280;11469;49.024;8.246;2024-01-07T05:35:25;100086.88;;;3.83;100.00
22605;BME280;11469;49.024;8.246;2024-01-07T05:37:50;100089.97;;;3.82;100.00
22605;BME280;11469;49.024;8.246;2024-01-07T05:40:16;100093.56;;;3.82;100.00
22605;BME280;11469;49.024;8.246;2024-01-07T05:42:41;100098.47;;;3.85;100.00
22605;BME280;11469;49.024;8.246;2024-01-07T05:45:06;100099.44;;;3.81;100.00
22605;BME280;11469;49.024;8.246;2024-01-07T05:47:32;100097.66;;;3.85;100.00
22605;BME280;11469;49.024;8.246;2024-01-07T05:49:57;100100.25;;;3.81;100.00
22605;BME280;11469;49.024;8.246;2024-01-07T05:52:23;100102.06;;;3.77;100.00
22605;BME280;11469;49.024;8.246;2024-01-07T05:54:49;100098.94;;;3.79;100.00
22605;BME280;11469;49.024;8.246;2024-01-07T05:57:14;100099.91;;;3.83;100.00
22605;BME280;11469;49.024;8.246;2024-01-07T05:59:40;100103.84;;;3.82;100.00
22605;BME280;11469;49.024;8.246;2024-01-07T06:02:05;100108.25;;;3.83;100.00
22605;BME280;11469;49.024;8.246;2024-01-07T06:04:30;100105.47;;;3.83;100.00
22605;BME280;11469;49.024;8.246;2024-01-07T06:06:56;100106.78;;;3.77;100.00
22605;BME280;11469;49.024;8.246;2024-01-07T06:09:21;100102.53;;;3.79;100.00
22605;BME280;11469;49.024;8.246;2024-01-07T06:11:47;100106.78;;;3.77;100.00
22605;BME280;11469;49.024;8.246;2024-01-07T06:14:12;100111.19;;;3.78;100.00
22605;BME280;11469;49.024;8.246;2024-01-07T06:16:37;100110.84;;;3.79;100.00
22605;BME280;11469;49.024;8.246;2024-01-07T06:19:03;100112.16;;;3.82;100.00
22605;BME280;11469;49.024;8.246;2024-01-07T06:21:28;100126.66;;;3.79;100.00
22605;BME280;11469;49.024;8.246;2024-01-07T06:23:54;100121.47;;;3.77;100.00
22605;BME280;11469;49.024;8.246;2024-01-07T06:26:20;100135.16;;;3.82;100.00
22605;BME280;11469;49.024;8.246;2024-01-07T06:28:45;100131.56;;;3.82;100.00
22605;BME280;11469;49.024;8.246;2024-01-07T06:31:10;100139.88;;;3.82;100.00
22605;BME280;11469;49.024;8.246;2024-01-07T06:33:36;100146.41;;;3.86;100.00
22605;BME280;11469;49.024;8.246;2024-01-07T06:36:01;100142.16;;;3.80;100.00
22605;BME280;11469;49.024;8.246;2024-01-07T06:38:27;100134.00;;;3.83;100.00
22605;BME280;11469;49.024;8.246;2024-01-07T06:40:52;100145.41;;;3.82;100.00
22605;BME280;11469;49.024;8.246;2024-01-07T06:43:20;100154.72;;;3.86;100.00
22605;BME280;11469;49.024;8.246;2024-01-07T06:45:45;100142.31;;;3.83;100.00
22605;BME280;11469;49.024;8.246;2024-01-07T06:48:11;100154.88;;;3.81;100.00
22605;BME280;11469;49.024;8.246;2024-01-07T06:50:36;100158.00;;;3.88;100.00
22605;BME280;11469;49.024;8.246;2024-01-07T06:53:01;100157.66;;;3.81;100.00
22605;BME280;11469;49.024;8.246;2024-01-07T06:55:27;100166.47;;;3.83;100.00
22605;BME280;11469;49.024;8.246;2024-01-07T06:57:52;100158.97;;;3.83;100.00
22605;BME280;11469;49.024;8.246;2024-01-07T07:00:18;100170.38;;;3.82;100.00
22605;BME280;11469;49.024;8.246;2024-01-07T07:02:43;100163.38;;;3.84;100.00
22605;BME280;11469;49.024;8.246;2024-01-07T07:05:09;100177.72;;;3.86;100.00
22605;BME280;11469;49.024;8.246;2024-01-07T07:07:34;100177.53;;;3.83;100.00
22605;BME280;11469;49.024;8.246;2024-01-07T07:10:00;100178.53;;;3.87;100.00
22605;BME280;11469;49.024;8.246;2024-01-07T07:12:25;100185.22;;;3.86;100.00
22605;BME280;11469;49.024;8.246;2024-01-07T07:14:51;100180.81;;;3.85;100.00
22605;BME280;11469;49.024;8.246;2024-01-07T07:17:16;100193.53;;;3.86;100.00
22605;BME280;11469;49.024;8.246;2024-01-07T07:19:42;100190.59;;;3.82;100.00
22605;BME280;11469;49.024;8.246;2024-01-07T07:22:07;100195.31;;;3.82;100.00
22605;BME280;11469;49.024;8.246;2024-01-07T07:24:32;100198.59;;;3.84;100.00
22605;BME280;11469;49.024;8.246;2024-01-07T07:26:58;100205.13;;;3.88;100.00
22605;BME280;11469;49.024;8.246;2024-01-07T07:29:23;100211.16;;;3.90;100.00
22605;BME280;11469;49.024;8.246;2024-01-07T07:31:49;100203.00;;;3.85;100.00
22605;BME280;11469;49.024;8.246;2024-01-07T07:34:14;100211.50;;;3.88;100.00
22605;BME280;11469;49.024;8.246;2024-01-07T07:36:39;100206.94;;;3.92;100.00
22605;BME280;11469;49.024;8.246;2024-01-07T07:39:06;100211.50;;;3.88;100.00
22605;BME280;11469;49.024;8.246;2024-01-07T07:41:32;100221.44;;;3.89;100.00
22605;BME280;11469;49.024;8.246;2024-01-07T07:43:57;100213.59;;;3.83;100.00
22605;BME280;11469;49.024;8.246;2024-01-07T07:46:22;100219.81;;;3.88;100.00
22605;BME280;11469;49.024;8.246;2024-01-07T07:48:48;100223.22;;;3.85;100.00
22605;BME280;11469;49.024;8.246;2024-01-07T07:51:14;100224.69;;;3.83;100.00
22605;BME280;11469;49.024;8.246;2024-01-07T07:53:40;100223.88;;;3.91;100.00
22605;BME280;11469;49.024;8.246;2024-01-07T07:56:06;100216.41;;;3.91;100.00
22605;BME280;11469;49.024;8.246;2024-01-07T07:58:32;100220.94;;;3.87;100.00
22605;BME280;11469;49.024;8.246;2024-01-07T08:00:57;100227.47;;;3.91;100.00
22605;BME280;11469;49.024;8.246;2024-01-07T08:03:23;100227.97;;;3.93;100.00
22605;BME280;11469;49.024;8.246;2024-01-07T08:05:48;100230.25;;;3.91;100.00
22605;BME280;11469;49.024;8.246;2024-01-07T08:08:15;100230.56;;;3.90;100.00
22605;BME280;11469;49.024;8.246;2024-01-07T08:10:42;100230.56;;;3.90;100.00
22605;BME280;11469;49.024;8.246;2024-01-07T08:13:09;100232.84;;;3.88;100.00
22605;BME280;11469;49.024;8.246;2024-01-07T08:15:35;100231.06;;;3.92;100.00
22605;BME280;11469;49.024;8.246;2024-01-07T08:18:01;100245.13;;;3.95;100.00
22605;BME280;11469;49.024;8.246;2024-01-07T08:20:27;100237.94;;;3.94;100.00
22605;BME280;11469;49.024;8.246;2024-01-07T08:22:53;100236.47;;;3.97;100.00
22605;BME280;11469;49.024;8.246;2024-01-07T08:25:18;100246.75;;;3.96;100.00
22605;BME280;11469;49.024;8.246;2024-01-07T08:27:43;100249.06;;;4.03;100.00
22605;BME280;11469;49.024;8.246;2024-01-07T08:30:09;100252.78;;;3.98;100.00
22605;BME280;11469;49.024;8.246;2024-01-07T08:32:34;100248.56;;;4.01;100.00
22605;BME280;11469;49.024;8.246;2024-01-07T08:35:01;100258.19;;;4.04;100.00
22605;BME280;11469;49.024;8.246;2024-01-07T08:37:26;100254.78;;;4.07;100.00
22605;BME280;11469;49.024;8.246;2024-01-07T08:39:52;100254.47;;;4.08;100.00
22605;BME280;11469;49.024;8.246;2024-01-07T08:42:17;100258.88;;;4.09;100.00
22605;BME280;11469;49.024;8.246;2024-01-07T08:44:42;100263.28;;;4.10;100.00
22605;BME280;11469;49.024;8.246;2024-01-07T08:47:08;100264.41;;;4.09;100.00
22605;BME280;11469;49.024;8.246;2024-01-07T08:49:33;100277.81;;;4.16;100.00
22605;BME280;11469;49.024;8.246;2024-01-07T08:51:59;100271.13;;;4.17;100.00
22605;BME280;11469;49.024;8.246;2024-01-07T08:54:24;100276.19;;;4.15;100.00
22605;BME280;11469;49.024;8.246;2024-01-07T08:56:50;100280.28;;;4.17;100.00
22605;BME280;11469;49.024;8.246;2024-01-07T08:59:15;100279.44;;;4.17;100.00
22605;BME280;11469;49.024;8.246;2024-01-07T09:01:41;100288.09;;;4.15;100.00
22605;BME280;11469;49.024;8.246;2024-01-07T09:04:06;100283.22;;;4.21;100.00
22605;BME280;11469;49.024;8.246;2024-01-07T09:06:31;100293.81;;;4.27;100.00
22605;BME280;11469;49.024;8.246;2024-01-07T09:08:57;100286.63;;;4.26;100.00
22605;BME280;11469;49.024;8.246;2024-01-07T09:11:23;100298.22;;;4.28;100.00
22605;BME280;11469;49.024;8.246;2024-01-07T09:13:49;100301.00;;;4.28;100.00
22605;BME280;11469;49.024;8.246;2024-01-07T09:16:15;100301.19;;;4.23;100.00
22605;BME280;11469;49.024;8.246;2024-01-07T09:18:41;100310.97;;;4.29;100.00
22605;BME280;11469;49.024;8.246;2024-01-07T09:21:06;100311.78;;;4.30;100.00
22605;BME280;11469;49.024;8.246;2024-01-07T09:23:32;100303.13;;;4.31;100.00
22605;BME280;11469;49.024;8.246;2024-01-07T09:25:59;100298.41;;;4.32;100.00
22605;BME280;11469;49.024;8.246;2024-01-07T09:28:25;100310.50;;;4.36;100.00
22605;BME280;11469;49.024;8.246;2024-01-07T09:30:50;100306.09;;;4.35;100.00
22605;BME280;11469;49.024;8.246;2024-01-07T09:33:16;100311.78;;;4.30;100.00
22605;BME280;11469;49.024;8.246;2024-01-07T09:35:41;100313.09;;;4.32;100.00
22605;BME280;11469;49.024;8.246;2024-01-07T09:38:07;100316.84;;;4.37;100.00
22605;BME280;11469;49.024;8.246;2024-01-07T09:40:32;100319.50;;;4.42;100.00
22605;BME280;11469;49.024;8.246;2024-01-07T09:42:58;100323.09;;;4.42;100.00
22605;BME280;11469;49.024;8.246;2024-01-07T09:45:25;100317.03;;;4.40;100.00
22605;BME280;11469;49.024;8.246;2024-01-07T09:47:50;100317.84;;;4.41;100.00
22605;BME280;11469;49.024;8.246;2024-01-07T09:50:16;100323.41;;;4.41;100.00
22605;BME280;11469;49.024;8.246;2024-01-07T09:52:45;100333.69;;;4.40;100.00
22605;BME280;11469;49.024;8.246;2024-01-07T09:55:26;100324.34;;;4.27;100.00
22605;BME280;11469;49.024;8.246;2024-01-07T09:57:53;100323.88;;;4.34;100.00
22605;BME280;11469;49.024;8.246;2024-01-07T10:00:20;100321.59;;;4.36;100.00
22605;BME280;11469;49.024;8.246;2024-01-07T10:02:45;100329.78;;;4.41;100.00
22605;BME280;11469;49.024;8.246;2024-01-07T10:05:10;100326.03;;;4.46;100.00
22605;BME280;11469;49.024;8.246;2024-01-07T10:07:36;100334.69;;;4.44;100.00
22605;BME280;11469;49.024;8.246;2024-01-07T10:10:17;100331.44;;;4.51;100.00
22605;BME280;11469;49.024;8.246;2024-01-07T10:12:46;100331.44;;;4.51;100.00
22605;BME280;11469;49.024;8.246;2024-01-07T10:15:12;100338.28;;;4.45;100.00
22605;BME280;11469;49.024;8.246;2024-01-07T10:17:37;100331.91;;;4.44;100.00
22605;BME280;11469;49.024;8.246;2024-01-07T10:20:05;100333.19;;;4.38;100.00
22605;BME280;11469;49.024;8.246;2024-01-07T10:22:34;100334.31;;;4.37;100.00
22605;BME280;11469;49.024;8.246;2024-01-07T10:24:59;100334.78;;;4.30;100.00
22605;BME280;11469;49.024;8.246;2024-01-07T10:27:25;100346.22;;;4.29;100.00
22605;BME280;11469;49.024;8.246;2024-01-07T10:29:50;100341.66;;;4.24;100.00
22605;BME280;11469;49.024;8.246;2024-01-07T10:32:19;100348.50;;;4.27;100.00
22605;BME280;11469;49.024;8.246;2024-01-07T10:34:46;100348.34;;;4.23;100.00
22605;BME280;11469;49.024;8.246;2024-01-07T10:37:12;100348.16;;;4.28;100.00
22605;BME280;11469;49.024;8.246;2024-01-07T10:39:38;100351.94;;;4.32;100.00
22605;BME280;11469;49.024;8.246;2024-01-07T10:42:04;100347.53;;;4.31;100.00
22605;BME280;11469;49.024;8.246;2024-01-07T10:44:31;100344.44;;;4.24;100.00
22605;BME280;11469;49.024;8.246;2024-01-07T10:46:57;100342.13;;;4.26;100.00
22605;BME280;11469;49.024;8.246;2024-01-07T10:49:27;100343.75;;;4.27;100.00
22605;BME280;11469;49.024;8.246;2024-01-07T10:52:03;100336.44;;;4.23;100.00
22605;BME280;11469;49.024;8.246;2024-01-07T10:54:32;100347.66;;;4.18;100.00
22605;BME280;11469;49.024;8.246;2024-01-07T10:57:27;100344.88;;;4.18;100.00
22605;BME280;11469;49.024;8.246;2024-01-07T10:59:56;100348.94;;;4.12;100.00
22605;BME280;11469;49.024;8.246;2024-01-07T11:02:22;100349.41;;;4.05;100.00
22605;BME280;11469;49.024;8.246;2024-01-07T11:04:59;100353.81;;;4.06;100.00
22605;BME280;11469;49.024;8.246;2024-01-07T11:07:30;100358.53;;;4.06;100.00
22605;BME280;11469;49.024;8.246;2024-01-07T11:12:31;100364.91;;;4.06;100.00
22605;BME280;11469;49.024;8.246;2024-01-07T11:14:56;100359.69;;;4.05;100.00
22605;BME280;11469;49.024;8.246;2024-01-07T11:19:59;100362.13;;;4.06;100.00
22605;BME280;11469;49.024;8.246;2024-01-07T11:22:26;100365.50;;;3.94;100.00
22605;BME280;11469;49.024;8.246;2024-01-07T11:24:55;100354.72;;;3.93;100.00
22605;BME280;11469;49.024;8.246;2024-01-07T11:27:25;100365.63;;;3.89;100.00
22605;BME280;11469;49.024;8.246;2024-01-07T11:30:01;100366.25;;;3.86;100.00
22605;BME280;11469;49.024;8.246;2024-01-07T11:32:30;100369.53;;;3.88;100.00
22605;BME280;11469;49.024;8.246;2024-01-07T11:34:56;100373.75;;;3.86;100.00
22605;BME280;11469;49.024;8.246;2024-01-07T11:37:25;100375.53;;;3.82;100.00
22605;BME280;11469;49.024;8.246;2024-01-07T11:39:53;100375.34;;;3.78;100.00
22605;BME280;11469;49.024;8.246;2024-01-07T11:42:20;100374.06;;;3.76;100.00
22605;BME280;11469;49.024;8.246;2024-01-07T11:44:52;100386.13;;;3.80;100.00
22605;BME280;11469;49.024;8.246;2024-01-07T11:47:18;100380.56;;;3.80;100.00
22605;BME280;11469;49.024;8.246;2024-01-07T11:49:45;100370.16;;;3.77;100.00
22605;BME280;11469;49.024;8.246;2024-01-07T11:52:11;100372.91;;;3.77;100.00
22605;BME280;11469;49.024;8.246;2024-01-07T11:54:38;100374.56;;;3.78;100.00
22605;BME280;11469;49.024;8.246;2024-01-07T11:57:04;100372.25;;;3.80;100.00
22605;BME280;11469;49.024;8.246;2024-01-07T11:59:29;100370.97;;;3.77;100.00
22605;BME280;11469;49.024;8.246;2024-01-07T12:01:55;100363.47;;;3.78;100.00
22605;BME280;11469;49.024;8.246;2024-01-07T12:04:20;100377.78;;;3.80;100.00
22605;BME280;11469;49.024;8.246;2024-01-07T12:06:47;100374.56;;;3.78;100.00
22605;BME280;11469;49.024;8.246;2024-01-07T12:09:13;100376.84;;;3.84;100.00
22605;BME280;11469;49.024;8.246;2024-01-07T12:11:41;100377.97;;;3.75;100.00
22605;BME280;11469;49.024;8.246;2024-01-07T12:14:08;100373.38;;;3.79;100.00
22605;BME280;11469;49.024;8.246;2024-01-07T12:16:35;100381.25;;;3.85;100.00
22605;BME280;11469;49.024;8.246;2024-01-07T12:19:00;100383.22;;;3.85;100.00
22605;BME280;11469;49.024;8.246;2024-01-07T12:21:26;100382.72;;;3.83;100.00
22605;BME280;11469;49.024;8.246;2024-01-07T12:23:53;100376.53;;;3.86;100.00
22605;BME280;11469;49.024;8.246;2024-01-07T12:26:19;100379.16;;;3.91;100.00
22605;BME280;11469;49.024;8.246;2024-01-07T12:28:52;100388.94;;;3.88;100.00
22605;BME280;11469;49.024;8.246;2024-01-07T12:31:18;100390.25;;;3.91;100.00
22605;BME280;11469;49.024;8.246;2024-01-07T12:33:43;100396.31;;;3.93;100.00
22605;BME280;11469;49.024;8.246;2024-01-07T12:36:08;100385.41;;;3.96;100.00
22605;BME280;11469;49.024;8.246;2024-01-07T12:38:37;100388.25;;;3.83;100.00
22605;BME280;11469;49.024;8.246;2024-01-07T12:41:06;100380.09;;;3.78;100.00
22605;BME280;11469;49.024;8.246;2024-01-07T12:43:31;100386.81;;;3.85;100.00
22605;BME280;11469;49.024;8.246;2024-01-07T12:45:57;100384.34;;;3.84;100.00
22605;BME280;11469;49.024;8.246;2024-01-07T12:48:26;100388.41;;;3.78;100.00
22605;BME280;11469;49.024;8.246;2024-01-07T12:50:51;100395.91;;;3.77;100.00
22605;BME280;11469;49.024;8.246;2024-01-07T12:53:18;100392.44;;;3.72;100.00